sensor_id;sensor_type;location;lat;lon;timestamp;pressure;altitude;pressure_sealevel;temperature;humidity
6615;BME280;3343;42.896;23.912;2022-09-25T00:00:53;96783.22;;;16.61;51.61
6615;BME280;3343;42.896;23.912;2022-09-25T00:03:20;96781.97;;;15.89;53.62
6615;BME280;3343;42.896;23.912;2022-09-25T00:05:50;96780.91;;;16.21;52.52
6615;BME280;3343;42.896;23.912;2022-09-25T00:08:18;96788.25;;;15.95;53.88
6615;BME280;3343;42.896;23.912;2022-09-25T00:10:46;96782.34;;;16.42;52.67
6615;BME280;3343;42.896;23.912;2022-09-25T00:13:16;96776.06;;;16.12;53.45
6615;BME280;3343;42.896;23.912;2022-09-25T00:15:47;96777.16;;;16.54;51.87
6615;BME280;3343;42.896;23.912;2022-09-25T00:18:15;96781.13;;;16.20;52.40
6615;BME280;3343;42.896;23.912;2022-09-25T00:21:02;96766.00;;;16.20;51.68
6615;BME280;3343;42.896;23.912;2022-09-25T00:23:29;96768.53;;;14.94;56.52
6615;BME280;3343;42.896;23.912;2022-09-25T00:25:57;96763.38;;;15.51;55.09
6615;BME280;3343;42.896;23.912;2022-09-25T00:28:25;96764.19;;;15.58;55.34
6615;BME280;3343;42.896;23.912;2022-09-25T00:30:54;96762.94;;;15.54;55.42
6615;BME280;3343;42.896;23.912;2022-09-25T00:33:20;96760.00;;;15.75;54.26
6615;BME280;3343;42.896;23.912;2022-09-25T00:35:48;96764.97;;;15.97;53.03
6615;BME280;3343;42.896;23.912;2022-09-25T00:38:15;96770.56;;;16.13;52.14
6615;BME280;3343;42.896;23.912;2022-09-25T00:40:42;96759.78;;;16.08;51.75
6615;BME280;3343;42.896;23.912;2022-09-25T00:43:12;96771.03;;;16.29;52.16
6615;BME280;3343;42.896;23.912;2022-09-25T00:45:41;96767.81;;;16.45;51.07
6615;BME280;3343;42.896;23.912;2022-09-25T00:48:11;96769.03;;;16.24;51.87
6615;BME280;3343;42.896;23.912;2022-09-25T00:50:44;96763.19;;;16.15;52.14
6615;BME280;3343;42.896;23.912;2022-09-25T00:53:18;96767.69;;;16.15;52.01
6615;BME280;3343;42.896;23.912;2022-09-25T00:55:47;96759.09;;;15.88;52.72
6615;BME280;3343;42.896;23.912;2022-09-25T00:58:16;96756.47;;;16.13;52.09
6615;BME280;3343;42.896;23.912;2022-09-25T01:00:46;96758.63;;;15.98;52.86
6615;BME280;3343;42.896;23.912;2022-09-25T01:03:15;96759.34;;;16.11;52.09
6615;BME280;3343;42.896;23.912;2022-09-25T01:05:43;96756.25;;;16.14;51.32
6615;BME280;3343;42.896;23.912;2022-09-25T01:08:13;96751.69;;;16.21;51.26
6615;BME280;3343;42.896;23.912;2022-09-25T01:10:41;96752.78;;;15.89;52.45
6615;BME280;3343;42.896;23.912;2022-09-25T01:13:10;96751.09;;;15.95;52.46
6615;BME280;3343;42.896;23.912;2022-09-25T01:15:44;96745.59;;;15.58;53.83
6615;BME280;3343;42.896;23.912;2022-09-25T01:18:24;96741.94;;;15.90;52.41
6615;BME280;3343;42.896;23.912;2022-09-25T01:21:12;96752.25;;;16.05;51.11
6615;BME280;3343;42.896;23.912;2022-09-25T01:24:03;96738.25;;;15.91;51.36
6615;BME280;3343;42.896;23.912;2022-09-25T01:30:00;96742.31;;;16.19;50.90
6615;BME280;3343;42.896;23.912;2022-09-25T01:32:33;96735.88;;;16.08;51.30
6615;BME280;3343;42.896;23.912;2022-09-25T01:35:06;96742.75;;;16.16;51.19
6615;BME280;3343;42.896;23.912;2022-09-25T01:37:41;96748.78;;;16.05;51.91
6615;BME280;3343;42.896;23.912;2022-09-25T01:40:13;96744.59;;;16.15;51.33
6615;BME280;3343;42.896;23.912;2022-09-25T01:42:46;96747.69;;;16.12;51.23
6615;BME280;3343;42.896;23.912;2022-09-25T01:45:20;96742.00;;;16.09;51.48
6615;BME280;3343;42.896;23.912;2022-09-25T01:47:50;96744.06;;;16.07;50.78
6615;BME280;3343;42.896;23.912;2022-09-25T01:50:23;96740.34;;;15.07;54.63
6615;BME280;3343;42.896;23.912;2022-09-25T01:52:55;96740.84;;;15.28;54.51
6615;BME280;3343;42.896;23.912;2022-09-25T01:55:28;96746.16;;;14.77;56.10
6615;BME280;3343;42.896;23.912;2022-09-25T01:58:02;96740.09;;;15.15;55.58
6615;BME280;3343;42.896;23.912;2022-09-25T02:00:36;96744.81;;;15.06;55.63
6615;BME280;3343;42.896;23.912;2022-09-25T02:03:08;96735.50;;;15.35;54.30
6615;BME280;3343;42.896;23.912;2022-09-25T02:05:41;96738.22;;;15.22;54.35
6615;BME280;3343;42.896;23.912;2022-09-25T02:08:14;96748.84;;;15.60;53.24
6615;BME280;3343;42.896;23.912;2022-09-25T02:10:47;96745.34;;;15.28;54.34
6615;BME280;3343;42.896;23.912;2022-09-25T02:13:17;96741.84;;;15.34;54.40
6615;BME280;3343;42.896;23.912;2022-09-25T02:15:49;96749.13;;;15.45;53.58
6615;BME280;3343;42.896;23.912;2022-09-25T02:18:18;96743.94;;;15.57;53.41
6615;BME280;3343;42.896;23.912;2022-09-25T02:21:12;96750.91;;;15.51;53.54
6615;BME280;3343;42.896;23.912;2022-09-25T02:23:46;96753.00;;;15.43;53.35
6615;BME280;3343;42.896;23.912;2022-09-25T02:26:19;96751.00;;;15.38;54.16
6615;BME280;3343;42.896;23.912;2022-09-25T02:28:48;96750.78;;;14.95;55.07
6615;BME280;3343;42.896;23.912;2022-09-25T02:31:20;96745.38;;;15.66;52.62
6615;BME280;3343;42.896;23.912;2022-09-25T02:33:49;96752.34;;;15.60;52.95
6615;BME280;3343;42.896;23.912;2022-09-25T02:36:18;96739.72;;;15.49;52.36
6615;BME280;3343;42.896;23.912;2022-09-25T02:38:46;96739.16;;;15.41;52.82
6615;BME280;3343;42.896;23.912;2022-09-25T02:41:19;96737.47;;;15.08;54.48
6615;BME280;3343;42.896;23.912;2022-09-25T02:43:56;96731.84;;;15.36;53.61
6615;BME280;3343;42.896;23.912;2022-09-25T02:46:33;96739.13;;;15.47;53.35
6615;BME280;3343;42.896;23.912;2022-09-25T02:49:14;96744.41;;;15.60;52.27
6615;BME280;3343;42.896;23.912;2022-09-25T02:51:46;96736.84;;;15.57;52.35
6615;BME280;3343;42.896;23.912;2022-09-25T02:54:21;96748.78;;;15.35;53.59
6615;BME280;3343;42.896;23.912;2022-09-25T02:56:52;96742.38;;;15.11;54.04
6615;BME280;3343;42.896;23.912;2022-09-25T02:59:27;96743.72;;;14.62;56.51
6615;BME280;3343;42.896;23.912;2022-09-25T03:01:57;96748.38;;;14.74;57.00
6615;BME280;3343;42.896;23.912;2022-09-25T03:04:25;96748.88;;;15.15;55.45
6615;BME280;3343;42.896;23.912;2022-09-25T03:06:55;96741.50;;;15.17;55.35
6615;BME280;3343;42.896;23.912;2022-09-25T03:09:22;96740.50;;;15.18;54.74
6615;BME280;3343;42.896;23.912;2022-09-25T03:11:50;96750.56;;;15.41;54.00
6615;BME280;3343;42.896;23.912;2022-09-25T03:14:17;96750.19;;;15.38;53.12
6615;BME280;3343;42.896;23.912;2022-09-25T03:16:46;96747.00;;;15.67;52.93
6615;BME280;3343;42.896;23.912;2022-09-25T03:19:16;96739.28;;;15.59;52.71
6615;BME280;3343;42.896;23.912;2022-09-25T03:21:45;96748.41;;;15.25;54.07
6615;BME280;3343;42.896;23.912;2022-09-25T03:24:12;96748.22;;;15.20;54.59
6615;BME280;3343;42.896;23.912;2022-09-25T03:26:40;96742.06;;;15.33;54.03
6615;BME280;3343;42.896;23.912;2022-09-25T03:29:07;96740.09;;;14.44;57.89
6615;BME280;3343;42.896;23.912;2022-09-25T03:31:34;96739.44;;;14.68;56.52
6615;BME280;3343;42.896;23.912;2022-09-25T03:34:01;96740.84;;;14.84;56.14
6615;BME280;3343;42.896;23.912;2022-09-25T03:36:30;96747.06;;;15.47;54.14
6615;BME280;3343;42.896;23.912;2022-09-25T03:38:58;96745.56;;;15.26;54.37
6615;BME280;3343;42.896;23.912;2022-09-25T03:41:27;96742.22;;;15.38;54.91
6615;BME280;3343;42.896;23.912;2022-09-25T03:43:54;96745.78;;;15.56;53.73
6615;BME280;3343;42.896;23.912;2022-09-25T03:46:23;96752.00;;;15.82;53.11
6615;BME280;3343;42.896;23.912;2022-09-25T03:48:50;96746.22;;;15.53;53.50
6615;BME280;3343;42.896;23.912;2022-09-25T03:51:18;96743.31;;;15.68;52.60
6615;BME280;3343;42.896;23.912;2022-09-25T03:53:47;96746.38;;;15.97;52.12
6615;BME280;3343;42.896;23.912;2022-09-25T03:56:15;96737.25;;;15.61;52.54
6615;BME280;3343;42.896;23.912;2022-09-25T03:58:43;96755.19;;;15.59;53.05
6615;BME280;3343;42.896;23.912;2022-09-25T04:01:10;96742.69;;;15.73;52.19
6615;BME280;3343;42.896;23.912;2022-09-25T04:03:37;96746.91;;;15.80;51.41
6615;BME280;3343;42.896;23.912;2022-09-25T04:06:06;96753.03;;;15.81;52.17
6615;BME280;3343;42.896;23.912;2022-09-25T04:08:34;96754.09;;;15.28;55.17
6615;BME280;3343;42.896;23.912;2022-09-25T04:11:03;96746.03;;;15.62;53.49
6615;BME280;3343;42.896;23.912;2022-09-25T04:13:33;96750.50;;;15.92;52.62
6615;BME280;3343;42.896;23.912;2022-09-25T04:16:02;96751.88;;;14.74;58.28
6615;BME280;3343;42.896;23.912;2022-09-25T04:18:30;96750.56;;;15.03;55.57
6615;BME280;3343;42.896;23.912;2022-09-25T04:20:57;96743.44;;;14.97;54.89
6615;BME280;3343;42.896;23.912;2022-09-25T04:23:23;96753.78;;;15.12;54.97
6615;BME280;3343;42.896;23.912;2022-09-25T04:25:50;96753.22;;;15.41;53.95
6615;BME280;3343;42.896;23.912;2022-09-25T04:28:19;96733.38;;;15.88;52.34
6615;BME280;3343;42.896;23.912;2022-09-25T04:30:47;96761.94;;;15.62;53.46
6615;BME280;3343;42.896;23.912;2022-09-25T04:33:14;96755.47;;;15.38;53.60
6615;BME280;3343;42.896;23.912;2022-09-25T04:35:59;96749.34;;;15.82;52.72
6615;BME280;3343;42.896;23.912;2022-09-25T04:38:26;96756.81;;;15.67;52.80
6615;BME280;3343;42.896;23.912;2022-09-25T04:40:55;96757.41;;;15.69;52.99
6615;BME280;3343;42.896;23.912;2022-09-25T04:43:26;96756.13;;;16.03;52.47
6615;BME280;3343;42.896;23.912;2022-09-25T04:45:53;96761.38;;;15.84;52.76
6615;BME280;3343;42.896;23.912;2022-09-25T04:48:20;96764.38;;;15.95;52.59
6615;BME280;3343;42.896;23.912;2022-09-25T04:50:47;96764.28;;;15.32;55.90
6615;BME280;3343;42.896;23.912;2022-09-25T04:53:16;96754.09;;;15.73;53.76
6615;BME280;3343;42.896;23.912;2022-09-25T04:55:43;96752.31;;;15.67;54.23
6615;BME280;3343;42.896;23.912;2022-09-25T04:58:12;96755.53;;;16.01;53.60
6615;BME280;3343;42.896;23.912;2022-09-25T05:00:41;96764.31;;;16.26;52.86
6615;BME280;3343;42.896;23.912;2022-09-25T05:03:08;96761.97;;;15.86;53.92
6615;BME280;3343;42.896;23.912;2022-09-25T05:05:34;96758.63;;;15.98;53.51
6615;BME280;3343;42.896;23.912;2022-09-25T05:08:03;96766.75;;;16.52;52.52
6615;BME280;3343;42.896;23.912;2022-09-25T05:10:31;96765.50;;;16.80;51.66
6615;BME280;3343;42.896;23.912;2022-09-25T05:13:00;96769.84;;;17.11;50.91
6615;BME280;3343;42.896;23.912;2022-09-25T05:15:29;96767.47;;;17.39;49.29
6615;BME280;3343;42.896;23.912;2022-09-25T05:18:02;96761.31;;;17.99;48.28
6615;BME280;3343;42.896;23.912;2022-09-25T05:20:29;96768.00;;;17.90;47.57
6615;BME280;3343;42.896;23.912;2022-09-25T05:22:57;96768.09;;;18.25;47.08
6615;BME280;3343;42.896;23.912;2022-09-25T05:25:24;96766.16;;;18.43;46.68
6615;BME280;3343;42.896;23.912;2022-09-25T05:27:52;96767.78;;;18.91;46.11
6615;BME280;3343;42.896;23.912;2022-09-25T05:30:23;96766.28;;;19.35;44.43
6615;BME280;3343;42.896;23.912;2022-09-25T05:32:50;96756.63;;;19.46;44.33
6615;BME280;3343;42.896;23.912;2022-09-25T05:35:20;96756.75;;;20.42;42.03
6615;BME280;3343;42.896;23.912;2022-09-25T05:37:47;96761.81;;;20.26;42.25
6615;BME280;3343;42.896;23.912;2022-09-25T05:40:15;96762.88;;;20.59;43.08
6615;BME280;3343;42.896;23.912;2022-09-25T05:42:43;96759.69;;;20.79;41.94
6615;BME280;3343;42.896;23.912;2022-09-25T05:45:10;96756.75;;;21.19;42.25
6615;BME280;3343;42.896;23.912;2022-09-25T05:47:37;96746.56;;;21.65;41.72
6615;BME280;3343;42.896;23.912;2022-09-25T05:50:05;96750.44;;;21.74;40.07
6615;BME280;3343;42.896;23.912;2022-09-25T05:52:35;96732.72;;;21.46;41.46
6615;BME280;3343;42.896;23.912;2022-09-25T05:55:04;96732.22;;;21.49;39.55
6615;BME280;3343;42.896;23.912;2022-09-25T05:57:32;96744.50;;;21.01;41.37
6615;BME280;3343;42.896;23.912;2022-09-25T06:00:00;96741.19;;;21.16;42.50
6615;BME280;3343;42.896;23.912;2022-09-25T06:02:27;96746.84;;;21.19;42.86
6615;BME280;3343;42.896;23.912;2022-09-25T06:04:54;96745.53;;;21.22;43.26
6615;BME280;3343;42.896;23.912;2022-09-25T06:07:21;96752.91;;;21.32;44.05
6615;BME280;3343;42.896;23.912;2022-09-25T06:09:49;96745.47;;;21.60;44.20
6615;BME280;3343;42.896;23.912;2022-09-25T06:12:16;96760.09;;;21.26;44.32
6615;BME280;3343;42.896;23.912;2022-09-25T06:14:44;96756.88;;;21.51;44.35
6615;BME280;3343;42.896;23.912;2022-09-25T06:17:11;96762.25;;;21.29;44.93
6615;BME280;3343;42.896;23.912;2022-09-25T06:19:38;96752.47;;;21.40;45.12
6615;BME280;3343;42.896;23.912;2022-09-25T06:22:05;96757.84;;;21.40;45.30
6615;BME280;3343;42.896;23.912;2022-09-25T06:24:32;96757.69;;;21.51;44.35
6615;BME280;3343;42.896;23.912;2022-09-25T06:27:00;96758.03;;;21.82;44.34
6615;BME280;3343;42.896;23.912;2022-09-25T06:29:27;96759.72;;;20.62;47.56
6615;BME280;3343;42.896;23.912;2022-09-25T06:31:54;96756.78;;;19.68;49.20
6615;BME280;3343;42.896;23.912;2022-09-25T06:34:21;96755.53;;;19.30;50.08
6615;BME280;3343;42.896;23.912;2022-09-25T06:36:48;96761.81;;;19.24;49.90
6615;BME280;3343;42.896;23.912;2022-09-25T06:39:15;96767.72;;;19.66;48.21
6615;BME280;3343;42.896;23.912;2022-09-25T06:41:42;96772.41;;;20.04;47.72
6615;BME280;3343;42.896;23.912;2022-09-25T06:44:10;96784.03;;;20.44;47.54
6615;BME280;3343;42.896;23.912;2022-09-25T06:46:37;96772.84;;;20.47;46.74
6615;BME280;3343;42.896;23.912;2022-09-25T06:49:04;96773.25;;;21.11;46.42
6615;BME280;3343;42.896;23.912;2022-09-25T06:51:33;96770.41;;;21.88;45.60
6615;BME280;3343;42.896;23.912;2022-09-25T06:54:00;96767.16;;;22.45;43.55
6615;BME280;3343;42.896;23.912;2022-09-25T06:56:28;96767.78;;;22.89;39.75
6615;BME280;3343;42.896;23.912;2022-09-25T06:58:55;96775.13;;;23.61;39.27
6615;BME280;3343;42.896;23.912;2022-09-25T07:01:23;96766.31;;;23.86;38.89
6615;BME280;3343;42.896;23.912;2022-09-25T07:03:50;96766.94;;;24.29;37.21
6615;BME280;3343;42.896;23.912;2022-09-25T07:06:18;96773.13;;;25.60;35.99
6615;BME280;3343;42.896;23.912;2022-09-25T07:08:47;96767.69;;;25.70;35.36
6615;BME280;3343;42.896;23.912;2022-09-25T07:11:15;96777.16;;;26.80;33.69
6615;BME280;3343;42.896;23.912;2022-09-25T07:13:43;96772.41;;;27.01;32.41
6615;BME280;3343;42.896;23.912;2022-09-25T07:16:11;96776.00;;;26.86;32.27
6615;BME280;3343;42.896;23.912;2022-09-25T07:18:40;96782.06;;;27.07;32.09
6615;BME280;3343;42.896;23.912;2022-09-25T07:21:10;96788.81;;;27.52;32.43
6615;BME280;3343;42.896;23.912;2022-09-25T07:23:38;96783.81;;;27.88;31.53
6615;BME280;3343;42.896;23.912;2022-09-25T07:26:08;96774.94;;;28.20;31.37
6615;BME280;3343;42.896;23.912;2022-09-25T07:28:36;96771.56;;;28.47;28.30
6615;BME280;3343;42.896;23.912;2022-09-25T07:31:11;96780.34;;;28.90;29.21
6615;BME280;3343;42.896;23.912;2022-09-25T07:33:40;96774.22;;;29.12;29.34
6615;BME280;3343;42.896;23.912;2022-09-25T07:36:07;96781.78;;;28.50;28.07
6615;BME280;3343;42.896;23.912;2022-09-25T07:38:34;96777.69;;;28.52;27.88
6615;BME280;3343;42.896;23.912;2022-09-25T07:41:02;96774.81;;;28.95;28.81
6615;BME280;3343;42.896;23.912;2022-09-25T07:43:31;96783.06;;;29.17;26.50
6615;BME280;3343;42.896;23.912;2022-09-25T07:45:58;96773.66;;;28.69;26.25
6615;BME280;3343;42.896;23.912;2022-09-25T07:48:25;96783.66;;;29.01;26.85
6615;BME280;3343;42.896;23.912;2022-09-25T07:50:59;96771.63;;;29.21;26.91
6615;BME280;3343;42.896;23.912;2022-09-25T07:53:26;96768.97;;;28.23;25.67
6615;BME280;3343;42.896;23.912;2022-09-25T07:55:55;96770.88;;;28.55;26.38
6615;BME280;3343;42.896;23.912;2022-09-25T07:58:22;96767.53;;;28.77;24.69
6615;BME280;3343;42.896;23.912;2022-09-25T08:00:49;96769.34;;;28.68;25.15
6615;BME280;3343;42.896;23.912;2022-09-25T08:03:16;96770.41;;;29.27;25.19
6615;BME280;3343;42.896;23.912;2022-09-25T08:05:43;96762.28;;;28.34;24.36
6615;BME280;3343;42.896;23.912;2022-09-25T08:08:11;96766.00;;;29.03;25.05
6615;BME280;3343;42.896;23.912;2022-09-25T08:10:38;96761.56;;;28.94;24.71
6615;BME280;3343;42.896;23.912;2022-09-25T08:13:05;96759.84;;;28.51;25.14
6615;BME280;3343;42.896;23.912;2022-09-25T08:15:32;96740.91;;;27.57;25.92
6615;BME280;3343;42.896;23.912;2022-09-25T08:17:58;96730.19;;;28.28;24.36
6615;BME280;3343;42.896;23.912;2022-09-25T08:20:25;96722.78;;;28.33;24.73
6615;BME280;3343;42.896;23.912;2022-09-25T08:22:53;96722.84;;;29.21;25.11
6615;BME280;3343;42.896;23.912;2022-09-25T08:25:23;96723.72;;;29.71;24.97
6615;BME280;3343;42.896;23.912;2022-09-25T08:27:50;96722.25;;;28.96;24.90
6615;BME280;3343;42.896;23.912;2022-09-25T08:30:17;96716.81;;;28.96;25.85
6615;BME280;3343;42.896;23.912;2022-09-25T08:32:44;96723.19;;;28.73;26.02
6615;BME280;3343;42.896;23.912;2022-09-25T08:35:11;96729.22;;;29.79;25.25
6615;BME280;3343;42.896;23.912;2022-09-25T08:37:41;96721.56;;;31.02;25.17
6615;BME280;3343;42.896;23.912;2022-09-25T08:40:16;96713.81;;;31.18;25.33
6615;BME280;3343;42.896;23.912;2022-09-25T08:42:47;96719.91;;;31.72;24.19
6615;BME280;3343;42.896;23.912;2022-09-25T08:45:25;96718.31;;;32.22;23.23
6615;BME280;3343;42.896;23.912;2022-09-25T08:48:19;96704.53;;;32.02;21.97
6615;BME280;3343;42.896;23.912;2022-09-25T08:51:05;96699.06;;;31.67;22.42
6615;BME280;3343;42.896;23.912;2022-09-25T08:53:33;96693.59;;;31.41;22.69
6615;BME280;3343;42.896;23.912;2022-09-25T08:56:02;96688.38;;;31.79;24.21
6615;BME280;3343;42.896;23.912;2022-09-25T08:58:50;96683.44;;;32.80;22.42
6615;BME280;3343;42.896;23.912;2022-09-25T09:01:20;96680.38;;;32.26;23.23
6615;BME280;3343;42.896;23.912;2022-09-25T09:03:52;96675.56;;;32.32;22.34
6615;BME280;3343;42.896;23.912;2022-09-25T09:06:23;96691.56;;;32.33;22.59
6615;BME280;3343;42.896;23.912;2022-09-25T09:08:54;96680.19;;;32.95;22.40
6615;BME280;3343;42.896;23.912;2022-09-25T09:11:26;96683.91;;;33.49;21.79
6615;BME280;3343;42.896;23.912;2022-09-25T09:13:58;96672.78;;;33.54;21.33
6615;BME280;3343;42.896;23.912;2022-09-25T09:16:31;96673.28;;;33.27;22.02
6615;BME280;3343;42.896;23.912;2022-09-25T09:19:00;96670.03;;;33.04;22.49
6615;BME280;3343;42.896;23.912;2022-09-25T09:21:33;96670.66;;;33.39;22.84
6615;BME280;3343;42.896;23.912;2022-09-25T09:24:06;96669.31;;;33.16;20.45
6615;BME280;3343;42.896;23.912;2022-09-25T09:26:58;96661.75;;;31.50;21.69
6615;BME280;3343;42.896;23.912;2022-09-25T09:29:41;96655.34;;;32.07;21.67
6615;BME280;3343;42.896;23.912;2022-09-25T09:32:21;96657.31;;;32.70;21.17
6615;BME280;3343;42.896;23.912;2022-09-25T09:35:01;96657.06;;;33.31;19.62
6615;BME280;3343;42.896;23.912;2022-09-25T09:37:41;96650.63;;;33.35;19.83
6615;BME280;3343;42.896;23.912;2022-09-25T09:40:19;96653.56;;;33.51;19.64
6615;BME280;3343;42.896;23.912;2022-09-25T09:42:53;96641.94;;;33.83;19.11
6615;BME280;3343;42.896;23.912;2022-09-25T09:45:31;96642.38;;;34.39;19.12
6615;BME280;3343;42.896;23.912;2022-09-25T09:48:15;96641.06;;;34.25;18.59
6615;BME280;3343;42.896;23.912;2022-09-25T09:50:47;96644.13;;;33.19;18.18
6615;BME280;3343;42.896;23.912;2022-09-25T09:53:24;96630.84;;;32.79;18.35
6615;BME280;3343;42.896;23.912;2022-09-25T09:55:56;96638.50;;;33.66;18.17
6615;BME280;3343;42.896;23.912;2022-09-25T09:58:29;96631.19;;;33.99;18.31
6615;BME280;3343;42.896;23.912;2022-09-25T10:01:00;96630.59;;;33.31;18.05
6615;BME280;3343;42.896;23.912;2022-09-25T10:03:28;96631.91;;;33.67;18.98
6615;BME280;3343;42.896;23.912;2022-09-25T10:06:00;96629.59;;;33.36;18.30
6615;BME280;3343;42.896;23.912;2022-09-25T10:08:28;96628.34;;;33.33;19.28
6615;BME280;3343;42.896;23.912;2022-09-25T10:10:55;96626.06;;;32.29;17.99
6615;BME280;3343;42.896;23.912;2022-09-25T10:13:26;96634.22;;;32.29;18.04
6615;BME280;3343;42.896;23.912;2022-09-25T10:16:01;96633.09;;;32.13;18.66
6615;BME280;3343;42.896;23.912;2022-09-25T10:18:35;96616.94;;;31.99;18.34
6615;BME280;3343;42.896;23.912;2022-09-25T10:21:11;96615.53;;;31.76;19.68
6615;BME280;3343;42.896;23.912;2022-09-25T10:23:40;96620.78;;;31.55;19.31
6615;BME280;3343;42.896;23.912;2022-09-25T10:26:23;96615.16;;;32.21;17.73
6615;BME280;3343;42.896;23.912;2022-09-25T10:28:50;96600.13;;;31.97;18.89
6615;BME280;3343;42.896;23.912;2022-09-25T10:31:19;96605.25;;;33.01;18.61
6615;BME280;3343;42.896;23.912;2022-09-25T10:33:58;96608.31;;;33.50;18.28
6615;BME280;3343;42.896;23.912;2022-09-25T10:36:38;96611.56;;;34.18;17.82
6615;BME280;3343;42.896;23.912;2022-09-25T10:39:27;96603.69;;;34.04;18.10
6615;BME280;3343;42.896;23.912;2022-09-25T10:41:54;96596.03;;;32.85;18.48
6615;BME280;3343;42.896;23.912;2022-09-25T10:44:28;96599.06;;;33.42;18.15
6615;BME280;3343;42.896;23.912;2022-09-25T10:47:28;96592.81;;;33.83;17.32
6615;BME280;3343;42.896;23.912;2022-09-25T10:50:20;96586.56;;;32.82;18.60
6615;BME280;3343;42.896;23.912;2022-09-25T10:52:49;96577.50;;;33.49;18.16
6615;BME280;3343;42.896;23.912;2022-09-25T10:55:23;96580.25;;;34.15;18.98
6615;BME280;3343;42.896;23.912;2022-09-25T10:58:04;96587.88;;;34.92;17.62
6615;BME280;3343;42.896;23.912;2022-09-25T11:00:40;96597.97;;;35.40;16.23
6615;BME280;3343;42.896;23.912;2022-09-25T11:03:16;96588.34;;;34.69;16.52
6615;BME280;3343;42.896;23.912;2022-09-25T11:05:49;96579.81;;;34.26;16.34
6615;BME280;3343;42.896;23.912;2022-09-25T11:08:16;96577.59;;;33.74;16.50
6615;BME280;3343;42.896;23.912;2022-09-25T11:10:49;96573.88;;;33.58;16.57
6615;BME280;3343;42.896;23.912;2022-09-25T11:13:20;96577.34;;;33.46;18.05
6615;BME280;3343;42.896;23.912;2022-09-25T11:15:51;96575.09;;;32.30;17.71
6615;BME280;3343;42.896;23.912;2022-09-25T11:18:38;96583.41;;;32.34;18.94
6615;BME280;3343;42.896;23.912;2022-09-25T11:21:19;96577.09;;;32.50;16.82
6615;BME280;3343;42.896;23.912;2022-09-25T11:24:12;96568.28;;;33.54;17.13
6615;BME280;3343;42.896;23.912;2022-09-25T11:26:45;96571.66;;;33.72;16.96
6615;BME280;3343;42.896;23.912;2022-09-25T11:29:21;96563.00;;;34.60;17.24
6615;BME280;3343;42.896;23.912;2022-09-25T11:31:57;96565.56;;;34.90;16.10
6615;BME280;3343;42.896;23.912;2022-09-25T11:34:45;96566.09;;;35.07;15.62
6615;BME280;3343;42.896;23.912;2022-09-25T11:37:19;96569.06;;;35.55;15.24
6615;BME280;3343;42.896;23.912;2022-09-25T11:39:52;96562.81;;;34.90;15.43
6615;BME280;3343;42.896;23.912;2022-09-25T11:42:44;96562.88;;;35.18;15.34
6615;BME280;3343;42.896;23.912;2022-09-25T11:45:20;96554.25;;;34.42;15.19
6615;BME280;3343;42.896;23.912;2022-09-25T11:47:55;96557.00;;;33.97;15.72
6615;BME280;3343;42.896;23.912;2022-09-25T11:50:43;96557.94;;;34.01;15.44
6615;BME280;3343;42.896;23.912;2022-09-25T11:53:19;96547.94;;;34.17;16.21
6615;BME280;3343;42.896;23.912;2022-09-25T11:56:02;96547.03;;;34.26;14.96
6615;BME280;3343;42.896;23.912;2022-09-25T11:59:09;96548.91;;;34.58;14.44
6615;BME280;3343;42.896;23.912;2022-09-25T12:01:44;96540.69;;;34.58;16.00
6615;BME280;3343;42.896;23.912;2022-09-25T12:04:28;96545.00;;;33.56;15.79
6615;BME280;3343;42.896;23.912;2022-09-25T12:07:13;96544.34;;;33.18;16.01
6615;BME280;3343;42.896;23.912;2022-09-25T12:09:52;96537.41;;;32.70;15.99
6615;BME280;3343;42.896;23.912;2022-09-25T12:12:32;96534.16;;;32.00;16.76
6615;BME280;3343;42.896;23.912;2022-09-25T12:15:12;96530.75;;;32.59;16.42
6615;BME280;3343;42.896;23.912;2022-09-25T12:17:49;96543.22;;;32.60;16.82
6615;BME280;3343;42.896;23.912;2022-09-25T12:20:23;96542.63;;;33.13;15.74
6615;BME280;3343;42.896;23.912;2022-09-25T12:23:05;96542.25;;;32.65;15.56
6615;BME280;3343;42.896;23.912;2022-09-25T12:25:47;96538.69;;;31.62;16.15
6615;BME280;3343;42.896;23.912;2022-09-25T12:28:26;96541.22;;;30.89;17.30
6615;BME280;3343;42.896;23.912;2022-09-25T12:31:03;96545.09;;;31.83;17.05
6615;BME280;3343;42.896;23.912;2022-09-25T12:33:36;96539.13;;;31.98;16.35
6615;BME280;3343;42.896;23.912;2022-09-25T12:36:08;96538.44;;;32.86;15.99
6615;BME280;3343;42.896;23.912;2022-09-25T12:38:42;96535.59;;;33.87;16.43
6615;BME280;3343;42.896;23.912;2022-09-25T12:41:15;96539.78;;;34.42;16.05
6615;BME280;3343;42.896;23.912;2022-09-25T12:43:47;96524.75;;;33.58;16.29
6615;BME280;3343;42.896;23.912;2022-09-25T12:46:23;96532.66;;;32.58;16.88
6615;BME280;3343;42.896;23.912;2022-09-25T12:48:55;96529.94;;;32.58;16.83
6615;BME280;3343;42.896;23.912;2022-09-25T12:51:30;96534.91;;;32.56;16.61
6615;BME280;3343;42.896;23.912;2022-09-25T12:54:03;96534.22;;;32.68;16.28
6615;BME280;3343;42.896;23.912;2022-09-25T12:56:38;96524.78;;;33.37;16.31
6615;BME280;3343;42.896;23.912;2022-09-25T12:59:12;96516.53;;;34.11;15.36
6615;BME280;3343;42.896;23.912;2022-09-25T13:01:46;96523.47;;;34.21;15.73
6615;BME280;3343;42.896;23.912;2022-09-25T13:04:36;96494.09;;;33.73;16.85
6615;BME280;3343;42.896;23.912;2022-09-25T13:07:13;96515.72;;;33.24;16.46
6615;BME280;3343;42.896;23.912;2022-09-25T13:09:44;96508.78;;;31.53;17.85
6615;BME280;3343;42.896;23.912;2022-09-25T13:12:18;96512.09;;;32.99;16.62
6615;BME280;3343;42.896;23.912;2022-09-25T13:14:50;96501.88;;;32.87;16.43
6615;BME280;3343;42.896;23.912;2022-09-25T13:17:18;96494.72;;;33.04;16.77
6615;BME280;3343;42.896;23.912;2022-09-25T13:19:45;96503.38;;;33.06;16.83
6615;BME280;3343;42.896;23.912;2022-09-25T13:22:17;96497.53;;;32.95;17.05
6615;BME280;3343;42.896;23.912;2022-09-25T13:24:50;96480.19;;;33.53;17.37
6615;BME280;3343;42.896;23.912;2022-09-25T13:27:19;96492.81;;;32.75;17.62
6615;BME280;3343;42.896;23.912;2022-09-25T13:29:53;96491.81;;;33.30;16.71
6615;BME280;3343;42.896;23.912;2022-09-25T13:32:23;96493.72;;;33.62;17.63
6615;BME280;3343;42.896;23.912;2022-09-25T13:34:54;96473.47;;;32.97;17.68
6615;BME280;3343;42.896;23.912;2022-09-25T13:37:26;96478.28;;;33.33;17.47